createdAt,value
2019-02-28T00:01:00.700Z,4.20
2019-02-28T00:03:29.260Z,4.30
2019-02-28T00:05:57.730Z,4.20
2019-02-28T00:08:26.203Z,4.10
2019-02-28T00:10:54.695Z,4.30
2019-02-28T00:13:23.177Z,4.30
2019-02-28T00:15:51.707Z,4.40
2019-02-28T00:18:20.175Z,4.40
2019-02-28T00:20:48.636Z,4.50
2019-02-28T00:23:19.274Z,4.80
2019-02-28T00:25:47.308Z,5.00
2019-02-28T00:28:15.866Z,5.10
2019-02-28T00:30:44.334Z,5.30
2019-02-28T00:33:12.802Z,5.50
2019-02-28T00:35:44.624Z,5.70
2019-02-28T00:38:11.532Z,5.60
2019-02-28T00:40:40.108Z,5.80
2019-02-28T00:43:08.636Z,5.80
2019-02-28T00:45:37.415Z,6.20
2019-02-28T00:48:05.991Z,6.40
2019-02-28T00:50:34.488Z,6.50
2019-02-28T00:53:02.960Z,6.50
2019-02-28T00:55:31.469Z,6.50
2019-02-28T00:57:59.999Z,6.60
2019-02-28T01:00:28.604Z,6.70
2019-02-28T01:02:58.022Z,6.70
2019-02-28T01:05:26.631Z,6.60
2019-02-28T01:07:55.231Z,6.70
2019-02-28T01:10:23.765Z,6.70
2019-02-28T01:12:54.305Z,6.70
2019-02-28T01:15:22.427Z,6.70
2019-02-28T01:17:51.065Z,6.80
2019-02-28T01:20:19.542Z,6.80
2019-02-28T01:22:48.068Z,6.80
2019-02-28T01:25:18.248Z,6.90
2019-02-28T01:27:46.710Z,6.90
2019-02-28T01:30:16.118Z,6.90
2019-02-28T01:32:49.897Z,6.80
2019-02-28T01:35:15.065Z,6.70
2019-02-28T01:37:43.527Z,6.70
2019-02-28T01:40:14.030Z,6.70
2019-02-28T01:42:42.551Z,6.60
2019-02-28T01:45:13.282Z,6.70
2019-02-28T01:47:41.756Z,6.90
2019-02-28T01:50:11.871Z,6.90
2019-02-28T01:52:44.349Z,6.70
2019-02-28T01:55:11.308Z,6.60
2019-02-28T01:57:44.138Z,6.60
2019-02-28T02:00:14.056Z,6.60
2019-02-28T02:02:42.531Z,6.70
2019-02-28T02:05:11.082Z,6.70
2019-02-28T02:07:39.608Z,6.90
2019-02-28T02:10:12.826Z,6.80
2019-02-28T02:12:41.339Z,6.80
2019-02-28T02:15:11.364Z,6.80
2019-02-28T02:17:39.884Z,6.80
2019-02-28T02:20:10.902Z,6.80
2019-02-28T02:22:40.650Z,6.70
2019-02-28T02:25:11.014Z,6.70
2019-02-28T02:27:39.482Z,6.80
2019-02-28T02:30:15.097Z,6.70
2019-02-28T02:32:41.358Z,6.70
2019-02-28T02:35:09.980Z,6.80
2019-02-28T02:37:38.450Z,6.80
2019-02-28T02:40:09.968Z,6.70
2019-02-28T02:42:47.247Z,6.80
2019-02-28T02:45:12.105Z,6.70
2019-02-28T02:47:40.626Z,6.80
2019-02-28T02:50:11.344Z,6.80
2019-02-28T02:52:39.806Z,6.70
2019-02-28T02:55:08.763Z,6.70
2019-02-28T02:57:37.269Z,6.70
2019-02-28T03:00:17.026Z,6.60
2019-02-28T03:02:45.651Z,6.60
2019-02-28T03:05:14.861Z,6.60
2019-02-28T03:07:43.387Z,6.60
2019-02-28T03:10:19.726Z,6.60
2019-02-28T03:12:48.281Z,6.50
2019-02-28T03:15:24.922Z,6.50
2019-02-28T03:17:48.864Z,6.60
2019-02-28T03:20:17.825Z,6.60
2019-02-28T03:22:46.622Z,6.60
2019-02-28T03:25:16.227Z,6.60
2019-02-28T03:27:44.708Z,6.50
2019-02-28T03:30:26.197Z,6.50
2019-02-28T03:32:46.617Z,6.40
2019-02-28T03:35:15.206Z,6.40
2019-02-28T03:37:43.748Z,6.20
2019-02-28T03:40:13.517Z,6.30
2019-02-28T03:42:42.047Z,6.30
2019-02-28T03:45:15.149Z,6.20
2019-02-28T03:47:43.692Z,6.30
2019-02-28T03:50:13.191Z,6.40
2019-02-28T03:52:43.766Z,6.30
2019-02-28T03:55:13.892Z,6.20
2019-02-28T03:57:42.620Z,6.20
2019-02-28T04:00:17.001Z,6.20
2019-02-28T04:02:45.526Z,6.10
2019-02-28T04:05:13.998Z,6.20
2019-02-28T04:07:42.542Z,6.20
2019-02-28T04:10:16.770Z,6.10
2019-02-28T04:12:45.602Z,6.10
2019-02-28T04:15:17.891Z,6.20
2019-02-28T04:17:46.465Z,6.10
2019-02-28T04:20:15.045Z,6.20
2019-02-28T04:22:43.520Z,6.10
2019-02-28T04:25:12.195Z,6.20
2019-02-28T04:27:41.825Z,6.10
2019-02-28T04:30:12.622Z,6.10
2019-02-28T04:32:41.174Z,6.00
2019-02-28T04:35:09.871Z,6.00
2019-02-28T04:37:44.889Z,6.00
2019-02-28T04:40:11.411Z,6.00
2019-02-28T04:42:39.906Z,5.90
2019-02-28T04:45:10.798Z,5.80
2019-02-28T04:47:40.468Z,5.80
2019-02-28T04:50:11.311Z,5.80
2019-02-28T04:52:39.787Z,5.80
2019-02-28T04:55:09.191Z,5.70
2019-02-28T04:57:37.671Z,5.60
2019-02-28T05:00:17.139Z,5.60
2019-02-28T05:02:45.698Z,5.70
2019-02-28T05:05:14.503Z,5.70
2019-02-28T05:07:42.989Z,5.60
2019-02-28T05:10:12.147Z,5.60
2019-02-28T05:12:41.049Z,5.50
2019-02-28T05:15:12.195Z,5.50
2019-02-28T05:17:40.748Z,5.40
2019-02-28T05:20:10.802Z,5.50
2019-02-28T05:22:40.512Z,5.40
2019-02-28T05:25:10.195Z,5.40
2019-02-28T05:27:38.720Z,5.40
2019-02-28T05:30:10.278Z,5.40
2019-02-28T05:32:38.760Z,5.30
2019-02-28T05:35:07.468Z,5.20
2019-02-28T05:37:36.030Z,5.10
2019-02-28T05:40:07.792Z,5.10
2019-02-28T05:42:36.352Z,5.00
2019-02-28T05:45:06.366Z,4.90
2019-02-28T05:47:45.825Z,4.90
2019-02-28T05:50:07.158Z,5.00
2019-02-28T05:52:35.684Z,5.00
2019-02-28T05:55:04.414Z,5.00
2019-02-28T05:57:32.937Z,5.00
2019-02-28T06:00:02.883Z,5.10
2019-02-28T06:02:31.475Z,5.20
2019-02-28T06:04:59.952Z,5.30
2019-02-28T06:07:28.698Z,5.30
2019-02-28T06:09:58.090Z,5.40
2019-02-28T06:12:27.571Z,5.50
2019-02-28T06:15:02.192Z,5.60
2019-02-28T06:17:26.313Z,5.60
2019-02-28T06:19:54.924Z,5.70
2019-02-28T06:22:23.456Z,5.70
2019-02-28T06:24:51.996Z,5.80
2019-02-28T06:27:20.481Z,5.90
2019-02-28T06:29:48.968Z,5.80
2019-02-28T06:32:23.229Z,5.80
2019-02-28T06:34:47.676Z,5.90
2019-02-28T06:37:16.212Z,5.90
2019-02-28T06:39:44.713Z,6.00
2019-02-28T06:42:13.646Z,6.00
2019-02-28T06:44:42.143Z,6.10
2019-02-28T06:47:11.276Z,6.10
2019-02-28T06:49:41.982Z,6.10
2019-02-28T06:52:10.758Z,6.10
2019-02-28T06:54:40.158Z,6.10
2019-02-28T06:57:09.435Z,6.20
2019-02-28T06:59:39.129Z,6.20
2019-02-28T07:02:08.994Z,6.30
2019-02-28T07:04:37.674Z,6.40
2019-02-28T07:07:07.383Z,6.40
2019-02-28T07:09:37.241Z,6.50
2019-02-28T07:12:05.811Z,6.50
2019-02-28T07:14:34.349Z,6.60
2019-02-28T07:17:02.810Z,6.60
2019-02-28T07:19:31.280Z,6.70
2019-02-28T07:21:59.760Z,6.70
2019-02-28T07:24:28.241Z,6.70
2019-02-28T07:26:56.705Z,6.80
2019-02-28T07:29:25.216Z,6.80
2019-02-28T07:31:59.785Z,6.80
2019-02-28T07:34:24.053Z,6.90
2019-02-28T07:36:52.501Z,6.90
2019-02-28T07:39:20.985Z,7.00
2019-02-28T07:41:49.455Z,7.10
2019-02-28T07:44:21.006Z,7.10
2019-02-28T07:46:48.130Z,7.10
2019-02-28T07:49:16.666Z,7.20
2019-02-28T07:51:45.199Z,7.30
2019-02-28T07:54:15.868Z,7.30
2019-02-28T07:56:44.305Z,7.40
2019-02-28T07:59:13.111Z,7.40
2019-02-28T08:01:41.581Z,7.50
2019-02-28T08:04:10.112Z,7.50
2019-02-28T08:06:39.340Z,7.60
2019-02-28T08:09:12.007Z,7.70
2019-02-28T08:11:40.496Z,7.70
2019-02-28T08:14:09.215Z,7.70
2019-02-28T08:16:37.901Z,8.10
2019-02-28T08:19:06.387Z,9.50
2019-02-28T08:21:35.950Z,10.60
2019-02-28T08:24:07.119Z,11.10
2019-02-28T08:26:35.672Z,11.90
2019-02-28T08:29:04.130Z,12.20
2019-02-28T08:31:33.048Z,12.50
2019-02-28T08:34:01.645Z,13.20
2019-02-28T08:36:30.109Z,13.30
2019-02-28T08:38:58.575Z,13.10
2019-02-28T08:41:27.051Z,13.70
2019-02-28T08:43:55.536Z,14.10
2019-02-28T08:46:24.108Z,14.30
2019-02-28T08:48:52.668Z,14.00
2019-02-28T08:51:23.044Z,14.30
2019-02-28T08:53:52.174Z,14.80
2019-02-28T08:56:20.804Z,15.30
2019-02-28T08:58:49.279Z,14.40
2019-02-28T09:01:17.765Z,13.50
2019-02-28T09:03:46.280Z,12.70
2019-02-28T09:06:14.816Z,12.20
2019-02-28T09:08:43.427Z,11.90
2019-02-28T09:11:12.078Z,11.50
2019-02-28T09:13:43.019Z,12.20
2019-02-28T09:16:10.777Z,14.00
2019-02-28T09:18:39.251Z,14.20
2019-02-28T09:21:07.768Z,14.70
2019-02-28T09:23:37.579Z,15.30
2019-02-28T09:26:06.500Z,15.60
2019-02-28T09:28:35.057Z,15.60
2019-02-28T09:31:04.940Z,15.70
2019-02-28T09:33:33.731Z,14.80
2019-02-28T09:36:02.208Z,13.80
2019-02-28T09:38:30.792Z,14.10
2019-02-28T09:41:01.346Z,14.90
2019-02-28T09:43:29.491Z,14.80
2019-02-28T09:45:58.128Z,14.20
2019-02-28T09:48:26.716Z,14.70
2019-02-28T09:50:58.262Z,14.20
2019-02-28T09:53:25.422Z,14.10
2019-02-28T09:55:53.906Z,13.80
2019-02-28T09:58:22.371Z,13.80
2019-02-28T10:00:50.911Z,13.80
2019-02-28T10:03:19.570Z,14.10
2019-02-28T10:05:48.382Z,14.40
2019-02-28T10:08:16.877Z,14.40
2019-02-28T10:10:45.360Z,14.30
2019-02-28T10:13:14.578Z,13.90
2019-02-28T10:15:44.118Z,14.20
2019-02-28T10:18:12.668Z,14.40
2019-02-28T10:20:41.672Z,14.60
2019-02-28T10:23:10.192Z,14.60
2019-02-28T10:25:43.392Z,14.30
2019-02-28T10:28:08.868Z,14.60
2019-02-28T10:30:37.471Z,14.40
2019-02-28T10:33:06.073Z,14.00
2019-02-28T10:35:36.760Z,14.30
2019-02-28T10:38:04.862Z,14.30
2019-02-28T10:40:33.404Z,14.40
2019-02-28T10:43:01.872Z,14.90
2019-02-28T10:45:30.724Z,15.10
2019-02-28T10:48:02.903Z,15.10
2019-02-28T10:50:33.247Z,14.70
2019-02-28T10:53:04.583Z,14.50
2019-02-28T10:55:31.569Z,14.10
2019-02-28T10:58:00.173Z,14.40
2019-02-28T11:00:41.084Z,14.30
2019-02-28T11:03:09.760Z,14.20
2019-02-28T11:05:43.522Z,13.90
2019-02-28T11:08:19.287Z,13.50
2019-02-28T11:10:48.116Z,13.60
2019-02-28T11:13:20.168Z,13.60
2019-02-28T11:15:49.475Z,13.50
2019-02-28T11:18:18.221Z,13.80
2019-02-28T11:20:47.524Z,13.70
2019-02-28T11:23:16.741Z,13.80
2019-02-28T11:25:45.551Z,13.60
2019-02-28T11:28:15.120Z,13.40
2019-02-28T11:30:45.569Z,13.30
2019-02-28T11:33:14.946Z,13.30
2019-02-28T11:35:43.564Z,13.60
2019-02-28T11:38:12.372Z,13.60
2019-02-28T11:40:43.833Z,13.60
2019-02-28T11:43:11.235Z,13.30
2019-02-28T11:45:42.317Z,13.20
2019-02-28T11:48:18.923Z,13.00
2019-02-28T11:50:44.914Z,12.80
2019-02-28T11:53:13.664Z,12.90
2019-02-28T11:55:42.191Z,13.10
2019-02-28T11:58:16.626Z,13.00
2019-02-28T12:00:41.215Z,13.00
2019-02-28T12:03:09.725Z,13.00
2019-02-28T12:05:38.257Z,13.10
2019-02-28T12:08:10.378Z,13.10
2019-02-28T12:10:38.293Z,12.90
2019-02-28T12:13:06.934Z,12.90
2019-02-28T12:15:43.202Z,13.00
2019-02-28T12:18:11.823Z,12.80
2019-02-28T12:20:40.363Z,12.50
2019-02-28T12:23:08.835Z,12.50
2019-02-28T12:25:39.650Z,12.70
2019-02-28T12:28:07.595Z,12.70
2019-02-28T12:30:36.765Z,12.60
2019-02-28T12:33:05.366Z,12.80
2019-02-28T12:35:39.987Z,12.70
2019-02-28T12:38:04.310Z,12.70
2019-02-28T12:40:35.863Z,12.50
2019-02-28T12:43:09.748Z,12.40
2019-02-28T12:45:39.959Z,12.40
2019-02-28T12:48:08.479Z,12.40
2019-02-28T12:50:37.219Z,12.40
2019-02-28T12:53:05.904Z,12.40
2019-02-28T12:55:35.508Z,12.30
2019-02-28T12:58:04.875Z,12.30
2019-02-28T13:00:42.047Z,12.30
2019-02-28T13:03:11.090Z,12.30
2019-02-28T13:05:39.649Z,12.30
2019-02-28T13:08:08.254Z,12.40
2019-02-28T13:10:36.905Z,12.20
2019-02-28T13:13:07.323Z,12.10
2019-02-28T13:15:35.801Z,12.30
2019-02-28T13:18:09.041Z,12.30
2019-02-28T13:20:38.751Z,12.40
2019-02-28T13:23:07.378Z,12.30
2019-02-28T13:25:36.000Z,12.50
2019-02-28T13:28:06.012Z,12.60
2019-02-28T13:30:34.880Z,12.40
2019-02-28T13:33:03.344Z,12.50
2019-02-28T13:35:34.217Z,12.50
2019-02-28T13:38:02.764Z,12.50
2019-02-28T13:40:31.359Z,12.60
2019-02-28T13:43:01.733Z,12.50
2019-02-28T13:45:30.103Z,12.40
2019-02-28T13:47:58.721Z,12.40
2019-02-28T13:50:32.817Z,12.50
2019-02-28T13:53:02.455Z,12.50
2019-02-28T13:55:31.914Z,12.50
2019-02-28T13:58:00.444Z,12.50
2019-02-28T14:00:33.659Z,12.60
2019-02-28T14:03:09.132Z,12.60
2019-02-28T14:05:39.267Z,12.60
2019-02-28T14:08:09.850Z,12.60
2019-02-28T14:10:35.468Z,12.50
2019-02-28T14:13:04.413Z,12.40
2019-02-28T14:15:52.506Z,12.40
2019-02-28T14:18:20.078Z,12.30
2019-02-28T14:20:49.194Z,12.30
2019-02-28T14:23:20.732Z,12.30
2019-02-28T14:25:48.315Z,12.20
2019-02-28T14:28:16.943Z,12.20
2019-02-28T14:30:45.405Z,12.10
2019-02-28T14:33:16.180Z,12.20
2019-02-28T14:35:44.155Z,12.30
2019-02-28T14:38:12.794Z,12.20
2019-02-28T14:40:41.312Z,12.30
2019-02-28T14:43:09.784Z,12.10
2019-02-28T14:45:45.853Z,12.10
2019-02-28T14:48:14.471Z,12.00
2019-02-28T14:50:43.042Z,11.90
2019-02-28T14:53:14.373Z,11.90
2019-02-28T14:55:41.736Z,11.80
2019-02-28T14:58:10.212Z,11.80
2019-02-28T15:00:42.288Z,11.80
2019-02-28T15:03:09.689Z,11.80
2019-02-28T15:05:42.883Z,11.70
2019-02-28T15:08:11.988Z,11.60
2019-02-28T15:10:42.588Z,11.60
2019-02-28T15:13:11.128Z,11.50
2019-02-28T15:15:39.655Z,11.60
2019-02-28T15:18:10.932Z,11.50
2019-02-28T15:20:38.564Z,11.40
2019-02-28T15:23:07.187Z,11.30
2019-02-28T15:25:35.729Z,11.30
2019-02-28T15:28:04.234Z,11.30
2019-02-28T15:30:37.679Z,11.30
2019-02-28T15:33:06.235Z,11.20
2019-02-28T15:35:34.764Z,11.20
2019-02-28T15:38:05.870Z,11.10
2019-02-28T15:40:44.293Z,11.10
2019-02-28T15:43:16.970Z,11.10
2019-02-28T15:45:43.045Z,11.00
2019-02-28T15:48:11.514Z,11.00
2019-02-28T15:50:39.995Z,11.00
2019-02-28T15:53:11.238Z,10.90
2019-02-28T15:55:38.993Z,10.90
2019-02-28T15:58:07.479Z,10.90
2019-02-28T16:00:36.882Z,10.80
2019-02-28T16:03:05.725Z,10.80
2019-02-28T16:05:34.283Z,10.70
2019-02-28T16:08:09.008Z,10.60
2019-02-28T16:10:34.444Z,10.60
2019-02-28T16:13:04.541Z,10.50
2019-02-28T16:15:33.104Z,10.50
2019-02-28T16:18:01.636Z,10.40
2019-02-28T16:20:31.958Z,10.30
2019-02-28T16:23:00.422Z,10.30
2019-02-28T16:25:39.178Z,10.20
2019-02-28T16:28:08.961Z,10.10
2019-02-28T16:30:39.176Z,10.10
2019-02-28T16:33:07.878Z,10.10
2019-02-28T16:35:36.420Z,10.00
2019-02-28T16:38:06.424Z,10.00
2019-02-28T16:40:35.310Z,10.00
2019-02-28T16:43:04.064Z,9.90
2019-02-28T16:45:37.404Z,9.90
2019-02-28T16:48:08.046Z,9.90
2019-02-28T16:50:36.666Z,9.80
2019-02-28T16:53:05.340Z,9.80
2019-02-28T16:55:33.918Z,9.70
2019-02-28T16:58:03.671Z,9.60
2019-02-28T17:00:32.244Z,9.50
2019-02-28T17:03:00.738Z,9.50
2019-02-28T17:05:30.410Z,9.50
2019-02-28T17:07:58.892Z,9.50
2019-02-28T17:10:29.078Z,9.40
2019-02-28T17:13:11.120Z,9.40
2019-02-28T17:15:45.519Z,9.30
2019-02-28T17:18:21.475Z,9.30
2019-02-28T17:20:48.860Z,9.30
2019-02-28T17:23:18.702Z,9.20
2019-02-28T17:25:47.448Z,9.20
2019-02-28T17:28:29.664Z,9.10
2019-02-28T17:31:08.422Z,9.00
2019-02-28T17:33:36.242Z,9.00
2019-02-28T17:36:08.317Z,9.00
2019-02-28T17:38:37.322Z,8.90
2019-02-28T17:41:05.335Z,8.90
2019-02-28T17:43:36.929Z,8.90
2019-02-28T17:46:06.119Z,8.90
2019-02-28T17:48:52.473Z,9.00
2019-02-28T17:51:28.815Z,9.00
2019-02-28T17:54:00.416Z,9.00
2019-02-28T17:56:46.999Z,9.00
2019-02-28T17:59:30.361Z,9.00
2019-02-28T18:02:18.895Z,9.00
2019-02-28T18:05:06.900Z,8.90
2019-02-28T18:08:01.411Z,8.80
2019-02-28T18:10:38.655Z,8.70
2019-02-28T18:13:10.200Z,8.60
2019-02-28T18:15:51.447Z,8.60
2019-02-28T18:18:28.938Z,8.50
2019-02-28T18:21:17.379Z,8.50
2019-02-28T18:24:04.047Z,8.50
2019-02-28T18:27:08.417Z,8.50
2019-02-28T18:29:56.650Z,8.50
2019-02-28T18:32:25.198Z,8.60
2019-02-28T18:34:56.242Z,8.60
2019-02-28T18:37:25.447Z,8.70
2019-02-28T18:39:54.088Z,8.70
2019-02-28T18:42:22.585Z,8.80
2019-02-28T18:44:51.137Z,8.80
2019-02-28T18:47:19.700Z,8.80
2019-02-28T18:49:48.224Z,8.90
2019-02-28T18:52:18.022Z,8.80
2019-02-28T18:54:46.657Z,8.80
2019-02-28T18:57:15.145Z,8.80
2019-02-28T18:59:43.649Z,8.80
2019-02-28T19:02:12.205Z,8.80
2019-02-28T19:04:40.663Z,8.70
2019-02-28T19:07:09.145Z,8.80
2019-02-28T19:09:37.644Z,8.70
2019-02-28T19:12:06.251Z,8.60
2019-02-28T19:14:34.862Z,8.50
2019-02-28T19:17:03.339Z,8.50
2019-02-28T19:19:31.807Z,8.50
2019-02-28T19:22:00.297Z,8.50
2019-02-28T19:24:30.977Z,8.50
2019-02-28T19:26:59.455Z,8.50
2019-02-28T19:29:27.943Z,8.50
2019-02-28T19:31:56.481Z,8.40
2019-02-28T19:34:25.000Z,8.30
2019-02-28T19:42:50.763Z,8.30
2019-02-28T19:45:34.441Z,8.40
2019-02-28T19:48:03.225Z,8.50
2019-02-28T19:50:31.817Z,8.60
2019-02-28T19:53:12.998Z,8.60
2019-02-28T19:55:48.807Z,8.60
2019-02-28T19:58:17.400Z,8.70
2019-02-28T20:00:46.036Z,8.80
2019-02-28T20:03:14.745Z,8.70
2019-02-28T20:05:43.217Z,8.80
2019-02-28T20:08:11.699Z,8.80
2019-02-28T20:10:40.474Z,8.90
2019-02-28T20:13:09.033Z,8.90
2019-02-28T20:15:39.130Z,8.90
2019-02-28T20:18:10.579Z,8.80
2019-02-28T20:20:39.267Z,8.60
2019-02-28T20:23:07.917Z,8.50
2019-02-28T20:25:36.853Z,8.50
2019-02-28T20:28:05.396Z,8.40
2019-02-28T20:30:35.522Z,8.40
2019-02-28T20:33:04.897Z,8.30
2019-02-28T20:35:33.857Z,8.30
2019-02-28T20:38:03.043Z,8.30
2019-02-28T20:40:36.529Z,8.30
2019-02-28T20:43:05.093Z,8.30
2019-02-28T20:45:33.809Z,8.30
2019-02-28T20:48:04.182Z,8.30
2019-02-28T20:50:38.465Z,8.30
2019-02-28T20:53:07.096Z,8.30
2019-02-28T20:55:37.676Z,8.40
2019-02-28T20:58:06.268Z,8.40
2019-02-28T21:00:34.955Z,8.40
2019-02-28T21:03:05.211Z,8.40
2019-02-28T21:05:33.754Z,8.40
2019-02-28T21:08:13.192Z,8.40
2019-02-28T21:10:41.843Z,8.40
2019-02-28T21:13:10.398Z,8.40
2019-02-28T21:15:38.878Z,8.40
2019-02-28T21:18:09.014Z,8.50
2019-02-28T21:20:38.813Z,8.40
2019-02-28T21:23:07.494Z,8.40
2019-02-28T21:25:36.046Z,8.40
2019-02-28T21:28:04.902Z,8.40
2019-02-28T21:30:33.506Z,8.40
2019-02-28T21:33:02.002Z,8.40
2019-02-28T21:35:30.559Z,8.30
2019-02-28T21:37:59.206Z,8.30
2019-02-28T21:40:28.109Z,8.30
2019-02-28T21:42:56.678Z,8.30
2019-02-28T21:45:26.448Z,8.30
2019-02-28T21:47:55.043Z,8.30
2019-02-28T21:50:23.815Z,8.30
2019-02-28T21:52:52.637Z,8.30
2019-02-28T21:55:21.173Z,8.30
2019-02-28T21:57:49.782Z,8.30
2019-02-28T22:00:26.639Z,8.30
2019-02-28T22:02:58.364Z,8.30
2019-02-28T22:05:26.848Z,8.30
2019-02-28T22:07:55.351Z,8.30
2019-02-28T22:10:23.886Z,8.30
2019-02-28T22:12:52.648Z,8.40
2019-02-28T22:15:22.450Z,8.40
2019-02-28T22:17:51.055Z,8.40
2019-02-28T22:20:19.523Z,8.40
2019-02-28T22:22:50.154Z,8.50
2019-02-28T22:25:18.633Z,8.50
2019-02-28T22:27:47.176Z,8.50
2019-02-28T22:30:43.470Z,8.40
2019-02-28T22:33:29.752Z,8.50
2019-02-28T22:36:12.056Z,8.50
2019-02-28T22:38:40.606Z,8.50
2019-02-28T22:41:09.184Z,8.50
2019-02-28T22:43:37.718Z,8.50
2019-02-28T22:46:06.200Z,8.50
2019-02-28T22:48:34.671Z,8.60
2019-02-28T22:51:03.138Z,8.60
2019-02-28T22:53:31.840Z,8.60
2019-02-28T22:56:00.376Z,8.70
2019-02-28T22:58:28.844Z,8.70
2019-02-28T23:01:02.055Z,8.70
2019-02-28T23:03:32.405Z,8.70
2019-02-28T23:06:00.994Z,8.70
2019-02-28T23:08:29.539Z,8.70
2019-02-28T23:10:58.430Z,8.70
2019-02-28T23:13:27.446Z,8.70
2019-02-28T23:18:48.561Z,8.70
2019-02-28T23:21:22.195Z,8.70
2019-02-28T23:47:36.735Z,8.50
2019-02-28T23:50:09.551Z,8.50
2019-02-28T23:56:04.507Z,8.50
2019-02-28T23:58:38.095Z,8.50
